createdAt,value
2019-01-24T00:00:06.959Z,25.70
2019-01-24T00:02:41.638Z,25.47
2019-01-24T00:05:14.527Z,26.20
2019-01-24T00:07:46.495Z,25.50
2019-01-24T00:10:20.676Z,27.17
2019-01-24T00:12:53.806Z,25.53
2019-01-24T00:15:25.730Z,25.87
2019-01-24T00:17:57.632Z,26.43
2019-01-24T00:20:30.837Z,26.47
2019-01-24T00:23:02.778Z,25.87
2019-01-24T00:25:46.022Z,27.10
2019-01-24T00:28:20.537Z,26.57
2019-01-24T00:30:53.523Z,27.23
2019-01-24T00:33:30.115Z,28.00
2019-01-24T00:36:02.106Z,26.83
2019-01-24T00:38:35.176Z,28.70
2019-01-24T00:41:10.220Z,25.93
2019-01-24T00:43:44.646Z,25.73
2019-01-24T00:46:19.084Z,27.83
2019-01-24T00:48:53.758Z,27.53
2019-01-24T00:51:28.401Z,27.60
2019-01-24T00:54:00.258Z,27.27
2019-01-24T00:56:32.091Z,26.50
2019-01-24T00:59:06.396Z,27.27
2019-01-24T01:01:40.850Z,24.43
2019-01-24T01:04:15.072Z,27.40
2019-01-24T01:06:47.030Z,27.47
2019-01-24T01:09:22.986Z,27.50
2019-01-24T01:11:56.048Z,27.40
2019-01-24T01:14:29.370Z,28.03
2019-01-24T01:17:02.281Z,27.83
2019-01-24T01:19:35.511Z,27.27
2019-01-24T01:22:08.381Z,28.37
2019-01-24T01:24:44.210Z,29.33
2019-01-24T01:27:18.342Z,27.53
2019-01-24T01:29:50.250Z,27.73
2019-01-24T01:32:24.974Z,27.10
2019-01-24T01:34:57.888Z,27.67
2019-01-24T01:37:31.191Z,27.87
2019-01-24T01:40:04.623Z,27.47
2019-01-24T01:42:37.954Z,27.07
2019-01-24T01:45:13.421Z,27.40
2019-01-24T01:47:46.978Z,28.17
2019-01-24T01:50:24.350Z,27.90
2019-01-24T01:52:56.219Z,27.93
2019-01-24T01:55:30.716Z,28.87
2019-01-24T01:58:03.935Z,29.97
2019-01-24T02:00:37.387Z,29.10
2019-01-24T02:03:12.267Z,29.53
2019-01-24T02:05:46.322Z,29.33
2019-01-24T02:08:25.971Z,28.40
2019-01-24T02:10:57.806Z,27.83
2019-01-24T02:13:30.750Z,28.90
2019-01-24T02:16:02.747Z,29.80
2019-01-24T02:18:34.603Z,28.00
2019-01-24T02:21:07.528Z,28.87
2019-01-24T02:23:39.390Z,30.23
2019-01-24T02:26:11.289Z,29.10
2019-01-24T02:28:43.155Z,28.33
2019-01-24T02:31:16.523Z,27.97
2019-01-24T02:33:49.390Z,28.50
2019-01-24T02:36:21.241Z,28.13
2019-01-24T02:38:55.967Z,30.03
2019-01-24T02:41:28.859Z,29.63
2019-01-24T02:44:01.844Z,28.37
2019-01-24T02:46:35.957Z,27.93
2019-01-24T02:49:10.282Z,27.97
2019-01-24T02:51:44.810Z,28.83
2019-01-24T02:54:17.006Z,28.87
2019-01-24T02:56:49.917Z,29.70
2019-01-24T02:59:22.840Z,28.73
2019-01-24T03:01:54.778Z,30.53
2019-01-24T03:04:26.814Z,30.10
2019-01-24T03:06:58.720Z,30.20
2019-01-24T03:09:34.745Z,29.63
2019-01-24T03:12:06.818Z,30.03
2019-01-24T03:14:39.834Z,30.10
2019-01-24T03:17:13.223Z,30.40
2019-01-24T03:19:45.023Z,30.87
2019-01-24T03:22:17.849Z,30.67
2019-01-24T03:24:51.899Z,31.77
2019-01-24T03:27:23.824Z,29.50
2019-01-24T03:29:57.255Z,30.37
2019-01-24T03:32:29.508Z,30.33
2019-01-24T03:35:04.451Z,29.43
2019-01-24T03:37:38.196Z,31.70
2019-01-24T03:40:13.158Z,29.03
2019-01-24T03:42:47.607Z,30.23
2019-01-24T03:45:20.997Z,29.90
2019-01-24T03:47:55.127Z,30.37
2019-01-24T03:50:28.296Z,30.77
2019-01-24T03:53:00.251Z,32.37
2019-01-24T03:55:34.513Z,31.97
2019-01-24T03:58:07.603Z,32.63
2019-01-24T04:00:40.768Z,31.30
2019-01-24T04:03:15.427Z,31.00
2019-01-24T04:05:48.864Z,32.43
2019-01-24T04:08:22.773Z,32.80
2019-01-24T04:10:55.725Z,31.33
2019-01-24T04:13:27.686Z,30.23
2019-01-24T04:16:02.124Z,31.77
2019-01-24T04:18:35.497Z,32.13
2019-01-24T04:21:09.707Z,31.50
2019-01-24T04:23:43.154Z,31.50
2019-01-24T04:26:15.511Z,30.97
2019-01-24T04:28:47.404Z,31.73
2019-01-24T04:31:20.456Z,32.60
2019-01-24T04:33:55.223Z,32.83
2019-01-24T04:36:28.917Z,33.93
2019-01-24T04:39:02.122Z,32.30
2019-01-24T04:41:37.459Z,33.07
2019-01-24T04:44:09.314Z,33.23
2019-01-24T04:46:42.795Z,33.17
2019-01-24T04:49:14.656Z,32.50
2019-01-24T04:51:47.886Z,32.57
2019-01-24T04:54:20.869Z,30.93
2019-01-24T04:56:52.691Z,32.10
2019-01-24T04:59:25.898Z,33.43
2019-01-24T05:01:57.750Z,33.43
2019-01-24T05:04:30.733Z,32.33
2019-01-24T05:07:04.675Z,34.23
2019-01-24T05:09:36.613Z,33.17
2019-01-24T05:12:11.028Z,33.97
2019-01-24T05:15:00.359Z,34.43
2019-01-24T05:17:34.617Z,33.40
2019-01-24T05:20:08.710Z,32.80
2019-01-24T05:22:40.727Z,34.83
2019-01-24T05:25:15.385Z,33.77
2019-01-24T05:27:48.918Z,34.83
2019-01-24T05:30:24.602Z,32.97
2019-01-24T05:32:59.376Z,33.10
2019-01-24T05:35:35.000Z,35.13
2019-01-24T05:38:07.330Z,34.07
2019-01-24T05:40:42.790Z,35.03
2019-01-24T05:43:15.885Z,35.73
2019-01-24T05:45:49.073Z,34.43
2019-01-24T05:48:23.997Z,34.67
2019-01-24T05:50:55.852Z,35.17
2019-01-24T05:53:27.965Z,34.60
2019-01-24T05:58:56.182Z,35.47
2019-01-24T06:01:33.718Z,36.10
2019-01-24T06:04:21.818Z,35.37
2019-01-24T06:06:53.785Z,35.40
2019-01-24T06:09:25.716Z,36.43
2019-01-24T06:11:57.664Z,37.17
2019-01-24T06:14:30.881Z,37.13
2019-01-24T06:17:02.801Z,38.10
2019-01-24T06:19:34.690Z,37.77
2019-01-24T06:22:07.199Z,37.77
2019-01-24T06:24:38.719Z,39.17
2019-01-24T06:27:11.969Z,38.87
2019-01-24T06:29:43.886Z,40.37
2019-01-24T06:32:15.816Z,39.37
2019-01-24T06:34:47.801Z,39.53
2019-01-24T06:37:19.739Z,36.30
2019-01-24T06:39:53.228Z,118.57
2019-01-24T06:42:25.231Z,39.97
2019-01-24T06:44:57.183Z,41.03
2019-01-24T06:47:30.893Z,36.97
2019-01-24T06:50:02.736Z,38.00
2019-01-24T06:52:34.999Z,38.97
2019-01-24T06:55:07.906Z,38.43
2019-01-24T06:57:39.912Z,39.13
2019-01-24T07:00:14.949Z,39.20
2019-01-24T07:02:46.921Z,39.17
2019-01-24T07:05:20.175Z,39.40
2019-01-24T07:07:52.066Z,39.47
2019-01-24T07:10:24.270Z,39.07
2019-01-24T07:12:59.039Z,39.30
2019-01-24T07:15:32.477Z,37.77
2019-01-24T07:18:06.120Z,38.87
2019-01-24T07:20:41.106Z,40.50
2019-01-24T07:23:13.324Z,39.00
2019-01-24T07:25:46.851Z,37.80
2019-01-24T07:28:21.119Z,36.30
2019-01-24T07:30:54.400Z,39.60
2019-01-24T07:33:29.411Z,38.03
2019-01-24T07:36:02.286Z,40.27
2019-01-24T07:38:34.616Z,39.70
2019-01-24T07:41:08.665Z,39.07
2019-01-24T07:43:40.651Z,38.83
2019-01-24T07:46:12.813Z,40.67
2019-01-24T07:48:44.959Z,37.57
2019-01-24T07:51:17.204Z,40.70
2019-01-24T07:53:52.748Z,41.63
2019-01-24T07:56:25.016Z,40.43
2019-01-24T07:58:57.261Z,40.07
2019-01-24T08:01:30.621Z,39.87
2019-01-24T08:04:05.312Z,40.10
2019-01-24T08:06:37.771Z,41.20
2019-01-24T08:09:12.042Z,40.67
2019-01-24T08:11:44.386Z,40.60
2019-01-24T08:14:17.631Z,41.63
2019-01-24T08:16:49.907Z,41.10
2019-01-24T08:19:22.085Z,40.47
2019-01-24T08:21:54.749Z,38.27
2019-01-24T08:24:27.112Z,40.63
2019-01-24T08:26:59.363Z,41.77
2019-01-24T08:29:33.330Z,41.30
2019-01-24T08:32:06.718Z,43.77
2019-01-24T08:34:38.851Z,41.37
2019-01-24T08:37:11.947Z,42.63
2019-01-24T08:39:45.332Z,41.17
2019-01-24T08:42:17.659Z,41.53
2019-01-24T08:44:51.160Z,41.23
2019-01-24T08:47:23.495Z,42.77
2019-01-24T08:49:55.605Z,40.97
2019-01-24T08:52:30.011Z,41.37
2019-01-24T08:55:02.449Z,40.20
2019-01-24T08:57:35.528Z,41.33
2019-01-24T09:00:09.064Z,39.97
2019-01-24T09:02:41.064Z,39.70
2019-01-24T09:05:14.555Z,39.37
2019-01-24T09:07:46.819Z,40.50
2019-01-24T09:10:22.227Z,38.13
2019-01-24T09:12:54.418Z,40.97
2019-01-24T09:15:26.700Z,39.10
2019-01-24T09:17:58.739Z,39.27
2019-01-24T09:20:31.139Z,38.23
2019-01-24T09:23:03.493Z,39.17
2019-01-24T09:25:35.737Z,39.00
2019-01-24T09:28:14.868Z,39.40
2019-01-24T09:30:43.379Z,39.07
2019-01-24T09:33:15.510Z,39.10
2019-01-24T09:35:49.905Z,39.10
2019-01-24T09:38:22.371Z,39.03
2019-01-24T09:40:54.440Z,39.60
2019-01-24T09:43:26.476Z,37.80
2019-01-24T09:46:00.151Z,38.60
2019-01-24T09:48:32.427Z,39.43
2019-01-24T09:51:04.771Z,36.40
2019-01-24T09:53:36.802Z,37.63
2019-01-24T09:56:10.166Z,38.33
2019-01-24T09:58:42.727Z,38.33
2019-01-24T10:01:16.103Z,39.03
2019-01-24T10:03:48.284Z,38.63
2019-01-24T10:06:20.547Z,39.80
2019-01-24T10:08:53.888Z,38.87
2019-01-24T10:11:25.945Z,37.60
2019-01-24T10:13:58.416Z,34.67
2019-01-24T10:16:30.547Z,39.03
2019-01-24T10:19:02.492Z,37.67
2019-01-24T10:21:34.837Z,37.20
2019-01-24T10:24:07.059Z,37.20
2019-01-24T10:26:39.229Z,37.67
2019-01-24T10:29:11.265Z,38.80
2019-01-24T10:31:43.552Z,38.30
2019-01-24T10:34:15.704Z,35.73
2019-01-24T10:36:48.191Z,37.20
2019-01-24T10:39:20.664Z,36.83
2019-01-24T10:41:52.865Z,34.23
2019-01-24T10:44:25.070Z,35.07
2019-01-24T10:46:58.455Z,41.93
2019-01-24T10:49:31.575Z,34.13
2019-01-24T10:52:04.741Z,34.67
2019-01-24T10:54:36.865Z,32.77
2019-01-24T10:57:10.223Z,33.07
2019-01-24T10:59:42.637Z,32.80
2019-01-24T11:02:17.031Z,33.53
2019-01-24T11:04:50.772Z,31.60
2019-01-24T11:07:22.799Z,31.67
2019-01-24T11:09:54.767Z,32.07
2019-01-24T11:12:27.997Z,34.67
2019-01-24T11:15:00.061Z,33.17
2019-01-24T11:17:33.774Z,29.83
2019-01-24T11:20:07.574Z,34.13
2019-01-24T11:22:39.666Z,32.87
2019-01-24T11:25:14.637Z,31.60
2019-01-24T11:27:48.639Z,33.57
2019-01-24T11:30:25.309Z,33.87
2019-01-24T11:32:59.090Z,34.23
2019-01-24T11:35:34.491Z,32.27
2019-01-24T11:38:07.334Z,33.67
2019-01-24T11:40:39.690Z,34.37
2019-01-24T11:43:11.942Z,34.77
2019-01-24T11:45:45.453Z,32.53
2019-01-24T11:48:19.256Z,34.10
2019-01-24T11:50:51.312Z,33.23
2019-01-24T11:53:24.583Z,32.93
2019-01-24T11:55:56.586Z,33.63
2019-01-24T11:58:28.704Z,32.50
2019-01-24T12:01:01.018Z,33.70
2019-01-24T12:03:33.088Z,32.17
2019-01-24T12:06:06.564Z,34.63
2019-01-24T12:08:39.597Z,34.30
2019-01-24T12:11:12.252Z,34.90
2019-01-24T12:13:46.644Z,37.47
2019-01-24T12:16:18.688Z,33.93
2019-01-24T12:18:52.214Z,31.23
2019-01-24T12:21:24.518Z,31.53
2019-01-24T12:23:58.119Z,33.57
2019-01-24T12:26:30.696Z,34.77
2019-01-24T12:29:03.802Z,34.17
2019-01-24T12:31:35.857Z,37.87
2019-01-24T12:34:09.200Z,35.90
2019-01-24T12:36:43.082Z,35.43
2019-01-24T12:39:17.586Z,37.33
2019-01-24T12:41:49.669Z,42.03
2019-01-24T12:44:22.992Z,37.00
2019-01-24T12:46:55.971Z,36.60
2019-01-24T12:49:28.233Z,36.23
2019-01-24T12:52:00.326Z,37.20
2019-01-24T12:54:32.294Z,35.40
2019-01-24T12:57:04.465Z,35.50
2019-01-24T12:59:36.798Z,34.97
2019-01-24T13:02:09.083Z,34.47
2019-01-24T13:04:41.285Z,35.37
2019-01-24T13:07:18.366Z,34.43
2019-01-24T13:09:47.095Z,36.30
2019-01-24T13:12:19.168Z,35.47
2019-01-24T13:14:50.788Z,35.60
2019-01-24T13:17:24.149Z,33.73
2019-01-24T13:19:55.983Z,36.00
2019-01-24T13:22:27.830Z,34.93
2019-01-24T13:24:59.742Z,36.70
2019-01-24T13:27:31.603Z,35.93
2019-01-24T13:30:03.628Z,38.27
2019-01-24T13:32:35.506Z,37.30
2019-01-24T13:35:09.132Z,37.27
2019-01-24T13:37:41.016Z,37.53
2019-01-24T13:40:15.224Z,38.43
2019-01-24T13:42:47.081Z,38.33
2019-01-24T13:45:21.360Z,37.50
2019-01-24T13:47:53.578Z,37.13
2019-01-24T13:50:25.556Z,34.80
2019-01-24T13:52:57.698Z,35.07
2019-01-24T13:55:29.603Z,38.17
2019-01-24T13:58:01.533Z,36.53
2019-01-24T14:00:38.246Z,37.00
2019-01-24T14:03:28.314Z,37.03
2019-01-24T14:06:00.272Z,36.93
2019-01-24T14:08:32.057Z,38.80
2019-01-24T14:11:03.959Z,40.83
2019-01-24T14:13:35.867Z,41.13
2019-01-24T14:16:07.791Z,37.83
2019-01-24T14:18:39.689Z,36.47
2019-01-24T14:21:11.531Z,35.73
2019-01-24T14:23:43.429Z,36.30
2019-01-24T14:26:15.446Z,34.53
2019-01-24T14:28:47.292Z,33.90
2019-01-24T14:31:19.240Z,34.07
2019-01-24T14:33:51.336Z,32.00
2019-01-24T14:36:25.366Z,33.03
2019-01-24T14:38:57.757Z,33.60
2019-01-24T14:41:30.925Z,32.50
2019-01-24T14:44:02.847Z,32.63
2019-01-24T14:46:34.778Z,34.53
2019-01-24T14:49:06.799Z,33.37
2019-01-24T14:51:38.684Z,30.93
2019-01-24T14:54:10.582Z,33.67
2019-01-24T14:56:42.532Z,32.73
2019-01-24T14:59:14.580Z,32.90
2019-01-24T15:01:46.562Z,32.13
2019-01-24T15:04:18.518Z,33.13
2019-01-24T15:06:50.467Z,32.23
2019-01-24T15:09:22.424Z,31.97
2019-01-24T15:11:54.398Z,31.20
2019-01-24T15:14:26.353Z,32.67
2019-01-24T15:16:58.255Z,32.67
2019-01-24T15:19:30.225Z,31.73
2019-01-24T15:22:02.104Z,31.17
2019-01-24T15:24:33.980Z,33.27
2019-01-24T15:27:06.013Z,29.40
2019-01-24T15:29:37.898Z,29.07
2019-01-24T15:32:09.826Z,28.40
2019-01-24T15:34:41.699Z,28.73
2019-01-24T15:37:13.680Z,29.20
2019-01-24T15:39:45.748Z,35.13
2019-01-24T15:42:17.673Z,31.23
2019-01-24T15:44:49.542Z,28.80
2019-01-24T15:47:21.520Z,28.33
2019-01-24T15:49:53.336Z,28.73
2019-01-24T15:52:25.323Z,29.40
2019-01-24T15:54:57.229Z,27.83
2019-01-24T15:57:29.180Z,30.47
2019-01-24T16:00:01.129Z,26.93
2019-01-24T16:02:33.040Z,27.47
2019-01-24T16:05:05.341Z,27.13
2019-01-24T16:07:37.209Z,28.40
2019-01-24T16:10:11.225Z,28.53
2019-01-24T16:12:46.279Z,27.53
2019-01-24T16:15:23.750Z,28.47
2019-01-24T16:17:55.653Z,29.50
2019-01-24T16:20:28.552Z,28.57
2019-01-24T16:23:00.699Z,28.30
2019-01-24T16:25:33.316Z,28.40
2019-01-24T16:28:05.602Z,28.33
2019-01-24T16:30:38.387Z,28.37
2019-01-24T16:33:13.056Z,29.17
2019-01-24T16:35:44.969Z,28.03
2019-01-24T16:38:16.833Z,28.30
2019-01-24T16:40:48.814Z,28.93
2019-01-24T16:43:20.746Z,28.73
2019-01-24T16:45:52.625Z,28.87
2019-01-24T16:48:26.187Z,29.30
2019-01-24T16:50:58.125Z,27.60
2019-01-24T16:53:31.249Z,29.17
2019-01-24T16:56:03.182Z,30.23
2019-01-24T16:58:35.211Z,31.37
2019-01-24T17:01:11.814Z,30.57
2019-01-24T17:03:43.774Z,32.40
2019-01-24T17:06:15.712Z,31.43
2019-01-24T17:08:48.470Z,32.40
2019-01-24T17:11:20.425Z,32.40
2019-01-24T17:13:52.358Z,31.70
2019-01-24T17:16:24.267Z,33.97
2019-01-24T17:18:56.602Z,36.27
2019-01-24T17:21:28.633Z,35.10
2019-01-24T17:24:05.905Z,38.17
2019-01-24T17:26:42.663Z,38.73
2019-01-24T17:29:15.561Z,41.90
2019-01-24T17:31:54.235Z,40.10
2019-01-24T17:34:32.068Z,42.60
2019-01-24T17:37:04.070Z,42.50
2019-01-24T17:39:39.281Z,42.77
2019-01-24T17:42:17.547Z,43.03
2019-01-24T17:44:53.806Z,42.40
2019-01-24T17:47:26.603Z,43.00
2019-01-24T17:49:58.923Z,44.30
2019-01-24T17:52:31.498Z,43.63
2019-01-24T17:55:06.209Z,43.30
2019-01-24T17:57:38.323Z,45.63
2019-01-24T18:00:14.757Z,45.97
2019-01-24T18:02:47.878Z,46.23
2019-01-24T18:05:23.991Z,47.20
2019-01-24T18:08:02.280Z,46.70
2019-01-24T18:10:35.077Z,48.27
2019-01-24T18:13:08.035Z,46.77
2019-01-24T18:15:41.888Z,50.37
2019-01-24T18:18:18.367Z,48.10
2019-01-24T18:20:50.718Z,46.10
2019-01-24T18:23:22.842Z,45.77
2019-01-24T18:25:54.821Z,47.30
2019-01-24T18:28:26.827Z,46.50
2019-01-24T18:30:58.762Z,47.13
2019-01-24T18:33:31.036Z,46.50
2019-01-24T18:36:03.970Z,47.37
2019-01-24T18:38:44.556Z,47.53
2019-01-24T18:41:18.942Z,48.30
2019-01-24T18:43:51.434Z,47.10
2019-01-24T18:46:23.876Z,46.37
2019-01-24T18:48:55.729Z,46.93
2019-01-24T18:51:27.573Z,44.43
2019-01-24T18:53:59.442Z,45.70
2019-01-24T18:56:31.374Z,47.10
2019-01-24T18:59:03.282Z,45.63
2019-01-24T19:01:35.112Z,45.60
2019-01-24T19:04:07.082Z,47.10
2019-01-24T19:06:38.995Z,49.33
2019-01-24T19:09:11.274Z,48.83
2019-01-24T19:11:43.182Z,45.63
2019-01-24T19:14:17.139Z,47.23
2019-01-24T19:16:49.259Z,47.43
2019-01-24T19:19:21.335Z,47.50
2019-01-24T19:21:54.476Z,47.73
2019-01-24T19:24:27.525Z,46.00
2019-01-24T19:27:00.935Z,47.17
2019-01-24T19:29:33.180Z,45.67
2019-01-24T19:32:06.222Z,46.70
2019-01-24T19:34:40.735Z,43.97
2019-01-24T19:37:12.819Z,45.53
2019-01-24T19:39:45.079Z,44.70
2019-01-24T19:42:17.015Z,46.17
2019-01-24T19:44:48.967Z,46.53
2019-01-24T19:47:22.449Z,45.37
2019-01-24T19:49:55.149Z,47.17
2019-01-24T19:52:27.391Z,44.70
2019-01-24T19:55:00.730Z,47.27
2019-01-24T19:57:32.775Z,48.33
2019-01-24T20:00:06.841Z,46.17
2019-01-24T20:02:40.043Z,46.80
2019-01-24T20:05:13.151Z,46.60
2019-01-24T20:07:45.275Z,46.43
2019-01-24T20:10:19.319Z,46.50
2019-01-24T20:12:52.829Z,45.70
2019-01-24T20:15:26.621Z,47.63
2019-01-24T20:17:58.689Z,48.17
2019-01-24T20:20:32.286Z,48.20
2019-01-24T20:23:04.504Z,46.17
2019-01-24T20:25:36.878Z,49.60
2019-01-24T20:28:09.356Z,46.27
2019-01-24T20:30:41.443Z,48.50
2019-01-24T20:33:14.614Z,48.03
2019-01-24T20:35:52.793Z,49.20
2019-01-24T20:38:24.969Z,47.10
2019-01-24T20:40:56.874Z,50.20
2019-01-24T20:43:35.374Z,45.70
2019-01-24T20:46:05.144Z,45.27
2019-01-24T20:48:37.620Z,49.27
2019-01-24T20:51:09.809Z,47.70
2019-01-24T20:53:42.959Z,49.37
2019-01-24T20:56:15.263Z,48.67
2019-01-24T20:58:47.213Z,48.13
2019-01-24T21:01:20.898Z,49.83
2019-01-24T21:03:55.375Z,46.30
2019-01-24T21:06:28.267Z,47.87
2019-01-24T21:09:01.890Z,48.07
2019-01-24T21:11:36.116Z,49.37
2019-01-24T21:14:09.003Z,50.47
2019-01-24T21:16:41.980Z,50.67
2019-01-24T21:19:14.849Z,48.83
2019-01-24T21:21:47.749Z,48.70
2019-01-24T21:24:20.871Z,47.87
2019-01-24T21:26:55.153Z,47.80
2019-01-24T21:29:31.185Z,47.73
2019-01-24T21:32:04.127Z,48.33
2019-01-24T21:34:36.855Z,48.40
2019-01-24T21:37:10.663Z,48.13
2019-01-24T21:39:42.840Z,47.83
2019-01-24T21:42:16.632Z,48.97
2019-01-24T21:44:51.386Z,48.47
2019-01-24T21:47:24.789Z,48.60
2019-01-24T21:49:58.000Z,49.97
2019-01-24T21:52:30.234Z,48.47
2019-01-24T21:55:03.445Z,48.57
2019-01-24T21:57:36.642Z,47.80
2019-01-24T22:00:10.324Z,50.20
2019-01-24T22:02:42.445Z,49.43
2019-01-24T22:05:17.764Z,50.47
2019-01-24T22:07:51.069Z,47.87
2019-01-24T22:10:27.634Z,49.17
2019-01-24T22:13:00.150Z,48.40
2019-01-24T22:15:32.349Z,46.57
2019-01-24T22:18:04.979Z,48.97
2019-01-24T22:20:37.071Z,46.60
2019-01-24T22:23:09.147Z,47.73
2019-01-24T22:25:41.151Z,46.33
2019-01-24T22:28:13.340Z,45.30
2019-01-24T22:30:51.933Z,46.37
2019-01-24T22:33:24.100Z,46.60
2019-01-24T22:35:56.304Z,46.27
2019-01-24T22:38:28.475Z,45.60
2019-01-24T22:41:01.630Z,43.77
2019-01-24T22:43:33.746Z,45.33
2019-01-24T22:46:06.724Z,49.43
2019-01-24T22:48:39.141Z,45.83
2019-01-24T22:51:11.274Z,48.43
2019-01-24T22:53:43.451Z,46.00
2019-01-24T22:56:16.719Z,48.10
2019-01-24T22:58:48.798Z,48.33
2019-01-24T23:01:30.576Z,46.33
2019-01-24T23:04:16.282Z,47.40
2019-01-24T23:06:48.562Z,47.50
2019-01-24T23:09:23.584Z,46.00
2019-01-24T23:11:55.600Z,46.47
2019-01-24T23:14:30.200Z,46.07
2019-01-24T23:17:02.351Z,47.50
2019-01-24T23:19:36.066Z,47.13
2019-01-24T23:22:09.435Z,47.30
2019-01-24T23:24:41.551Z,45.13
2019-01-24T23:27:13.517Z,44.30
2019-01-24T23:29:45.692Z,45.27
2019-01-24T23:32:17.871Z,44.47
2019-01-24T23:34:49.869Z,43.87
2019-01-24T23:37:21.989Z,44.00
2019-01-24T23:39:55.299Z,43.73
2019-01-24T23:42:27.355Z,45.77
2019-01-24T23:45:00.352Z,43.57
2019-01-24T23:47:33.531Z,45.00
2019-01-24T23:50:07.255Z,44.13
2019-01-24T23:52:39.394Z,44.60
2019-01-24T23:55:11.511Z,45.03
2019-01-24T23:57:43.366Z,44.10
